Time;durP1;ratioP1;P1;durP2;ratioP2;P2;SDS_P1;SDS_P2;PMS_P1;PMS_P2;Temp;Humidity;BMP_temperature;BMP_pressure;BME280_temperature;BME280_humidity;BME280_pressure;Samples;Min_cycle;Max_cycle;Signal;HPM_P1;HPM_P2
2022/01/10 00:00:08;;;;;;;20.48;7.85;;;4.10;99.90;;;;;;5112979;28;20165;-51
2022/01/10 00:02:33;;;;;;;18.95;8.18;;;4.10;99.90;;;;;;5112989;28;20624;-50
2022/01/10 00:04:59;;;;;;;20.67;8.32;;;4.20;99.90;;;;;;5113141;28;20294;-51
2022/01/10 00:07:24;;;;;;;18.27;8.48;;;4.20;99.90;;;;;;5112912;28;20179;-50
2022/01/10 00:09:50;;;;;;;21.15;8.45;;;4.10;99.90;;;;;;5112898;28;20208;-50
2022/01/10 00:12:15;;;;;;;17.83;8.10;;;4.10;99.90;;;;;;5112583;28;20287;-51
2022/01/10 00:14:41;;;;;;;16.55;8.23;;;4.10;99.90;;;;;;5112774;28;20200;-50
2022/01/10 00:17:06;;;;;;;16.30;7.82;;;4.10;99.90;;;;;;5112730;28;20169;-50
2022/01/10 00:19:32;;;;;;;13.73;8.63;;;4.10;99.90;;;;;;5113123;28;20252;-51
2022/01/10 00:21:57;;;;;;;15.85;8.10;;;4.00;99.90;;;;;;5112690;28;20247;-51
2022/01/10 00:24:23;;;;;;;20.88;8.45;;;4.10;99.90;;;;;;5112545;28;20538;-51
2022/01/10 00:26:49;;;;;;;21.92;9.05;;;4.00;99.90;;;;;;5112605;28;20192;-51
2022/01/10 00:29:15;;;;;;;18.52;9.02;;;4.00;99.90;;;;;;5112531;28;20168;-51
2022/01/10 00:31:41;;;;;;;17.60;8.05;;;3.90;99.90;;;;;;5112551;28;20164;-51
2022/01/10 00:34:06;;;;;;;18.55;8.60;;;3.80;99.90;;;;;;5112527;28;20204;-51
2022/01/10 00:36:32;;;;;;;19.15;9.10;;;3.80;99.90;;;;;;5112739;28;20157;-50
2022/01/10 00:38:57;;;;;;;21.77;10.38;;;3.90;99.90;;;;;;5112454;28;20173;-51
2022/01/10 00:41:23;;;;;;;19.65;8.75;;;3.80;99.90;;;;;;5112423;28;20624;-50
2022/01/10 00:43:50;;;;;;;19.27;8.57;;;3.80;99.90;;;;;;5112696;28;20229;-50
2022/01/10 00:46:16;;;;;;;22.40;8.75;;;3.80;99.90;;;;;;5112689;28;20176;-51
2022/01/10 00:48:42;;;;;;;23.52;9.10;;;3.80;99.90;;;;;;5112423;28;20165;-50
2022/01/10 00:51:08;;;;;;;24.98;9.25;;;3.80;99.90;;;;;;5112577;28;20314;-51
2022/01/10 00:53:34;;;;;;;20.40;8.68;;;3.80;99.90;;;;;;5112507;28;20215;-50
2022/01/10 00:55:59;;;;;;;21.55;8.93;;;3.80;99.90;;;;;;5112729;28;20169;-50
2022/01/10 00:58:25;;;;;;;19.10;8.25;;;3.80;99.90;;;;;;5112456;28;20179;-50
2022/01/10 01:00:51;;;;;;;14.27;7.70;;;3.80;99.90;;;;;;5112305;28;20173;-51
2022/01/10 01:03:18;;;;;;;19.45;9.18;;;3.70;99.90;;;;;;5112505;28;20165;-51
2022/01/10 01:05:44;;;;;;;23.23;8.90;;;3.70;99.90;;;;;;5112100;28;20165;-51
2022/01/10 01:08:12;;;;;;;32.42;9.02;;;3.70;99.90;;;;;;5115415;28;20173;-51
2022/01/10 01:16:11;;;;;;;19.17;8.98;;;3.60;99.90;;;;;;5116160;28;20171;-51
2022/01/10 01:24:06;;;;;;;22.27;8.52;;;3.60;99.90;;;;;;5116346;28;20192;-51
2022/01/10 01:26:45;;;;;;;16.15;7.88;;;3.60;99.90;;;;;;5116561;28;20179;-51
2022/01/10 01:29:15;;;;;;;15.90;9.55;;;3.50;99.90;;;;;;5115918;28;20160;-50
2022/01/10 01:31:41;;;;;;;19.85;7.88;;;3.50;99.90;;;;;;5115974;28;20259;-50
2022/01/10 01:34:07;;;;;;;18.52;8.30;;;3.50;99.90;;;;;;5115767;28;20243;-49
2022/01/10 01:36:34;;;;;;;15.30;8.30;;;3.60;99.90;;;;;;5116315;28;20348;-51
2022/01/10 01:39:04;;;;;;;25.20;8.90;;;3.50;99.90;;;;;;5115570;28;20612;-51
2022/01/10 01:43:55;;;;;;;18.88;8.15;;;3.40;99.90;;;;;;5115921;28;20165;-51
2022/01/10 01:46:22;;;;;;;20.05;8.13;;;3.50;99.90;;;;;;5115494;28;20180;-50
2022/01/10 01:48:49;;;;;;;22.08;7.43;;;3.40;99.90;;;;;;5115568;28;20222;-51
2022/01/10 01:51:15;;;;;;;16.25;7.25;;;3.40;99.90;;;;;;5115607;28;20156;-51
2022/01/10 01:53:41;;;;;;;20.35;7.93;;;3.50;99.90;;;;;;5115367;28;20222;-52
2022/01/10 01:56:09;;;;;;;22.02;8.60;;;3.60;99.90;;;;;;5115348;28;20165;-50
2022/01/10 01:58:36;;;;;;;26.35;9.13;;;3.60;99.90;;;;;;5115327;28;20263;-50
2022/01/10 02:01:04;;;;;;;13.95;7.60;;;3.60;99.90;;;;;;5115896;28;20186;-51
2022/01/10 02:03:29;;;;;;;17.73;9.55;;;3.70;99.90;;;;;;5115613;28;20176;-50
2022/01/10 02:05:55;;;;;;;18.23;7.93;;;3.70;99.90;;;;;;5115460;28;20169;-50
2022/01/10 02:08:21;;;;;;;17.73;7.25;;;3.70;99.90;;;;;;5115207;28;20172;-50
2022/01/10 02:10:47;;;;;;;19.55;7.70;;;3.70;99.90;;;;;;5115117;28;20188;-50
2022/01/10 02:13:13;;;;;;;16.60;7.05;;;3.60;99.90;;;;;;5114861;28;20668;-50
2022/01/10 02:18:20;;;;;;;20.23;8.15;;;3.60;99.90;;;;;;5114406;28;20612;-50
2022/01/10 02:20:46;;;;;;;17.88;8.25;;;3.60;99.90;;;;;;5079718;28;20176;-50
2022/01/10 02:23:13;;;;;;;19.00;7.45;;;3.60;99.90;;;;;;5115112;28;20168;-50
2022/01/10 02:25:38;;;;;;;22.40;7.22;;;3.70;99.90;;;;;;5114820;28;20248;-50
2022/01/10 02:28:04;;;;;;;17.48;6.82;;;3.70;99.90;;;;;;5114765;28;20207;-50
2022/01/10 02:30:30;;;;;;;15.30;6.88;;;3.60;99.90;;;;;;5115171;28;20209;-50
2022/01/10 02:32:57;;;;;;;21.08;7.50;;;3.60;99.90;;;;;;5114581;28;20637;-50
2022/01/10 02:35:31;;;;;;;21.42;6.95;;;3.50;99.90;;;;;;5114948;28;21068;-50
2022/01/10 02:37:57;;;;;;;22.50;6.47;;;3.50;99.90;;;;;;5114871;28;20164;-51
2022/01/10 02:40:25;;;;;;;14.10;6.88;;;3.40;99.90;;;;;;5114498;28;20624;-50
2022/01/10 02:42:51;;;;;;;17.55;6.65;;;3.30;99.90;;;;;;5114588;28;20264;-50
2022/01/10 02:45:18;;;;;;;26.02;7.25;;;3.40;99.90;;;;;;5114285;28;20176;-51
2022/01/10 02:47:44;;;;;;;20.40;7.60;;;3.50;99.90;;;;;;5114251;28;20256;-50
2022/01/10 02:50:12;;;;;;;23.20;7.57;;;3.50;99.90;;;;;;5114024;28;20191;-49
2022/01/10 02:52:38;;;;;;;22.42;7.70;;;3.50;99.90;;;;;;5114274;28;20173;-50
2022/01/10 02:55:05;;;;;;;24.15;7.35;;;3.50;99.90;;;;;;5114065;28;20244;-50
2022/01/10 02:57:33;;;;;;;16.33;7.18;;;3.40;99.90;;;;;;5114403;28;20650;-50
2022/01/10 02:59:59;;;;;;;20.00;6.47;;;3.40;99.90;;;;;;5114749;28;20180;-50
2022/01/10 03:02:30;;;;;;;20.17;6.78;;;3.40;99.90;;;;;;5114061;28;20730;-50
2022/01/10 03:04:56;;;;;;;18.67;6.32;;;3.40;99.90;;;;;;5113995;28;20550;-50
2022/01/10 03:07:23;;;;;;;19.17;6.82;;;3.30;99.90;;;;;;5114036;28;20165;-50
2022/01/10 03:09:49;;;;;;;19.25;7.03;;;3.30;99.90;;;;;;5113825;28;20156;-51
2022/01/10 03:12:15;;;;;;;27.65;6.90;;;3.20;99.90;;;;;;5113709;28;20687;-51
2022/01/10 03:14:41;;;;;;;18.80;7.20;;;3.20;99.90;;;;;;5113701;28;20687;-50
2022/01/10 03:17:08;;;;;;;19.35;6.75;;;3.20;99.90;;;;;;5095477;28;20165;-49
2022/01/10 03:19:34;;;;;;;17.33;7.45;;;3.20;99.90;;;;;;5114000;28;20256;-49
2022/01/10 03:22:00;;;;;;;14.98;6.85;;;3.20;99.90;;;;;;5095847;28;20256;-50
2022/01/10 03:24:26;;;;;;;17.15;6.13;;;3.20;99.90;;;;;;5113818;28;20172;-49
2022/01/10 03:26:51;;;;;;;20.25;7.03;;;3.20;99.90;;;;;;5113629;28;20173;-49
2022/01/10 03:29:17;;;;;;;20.05;7.43;;;3.20;99.90;;;;;;5113567;28;20159;-50
2022/01/10 03:31:42;;;;;;;18.27;6.97;;;3.10;99.90;;;;;;5113420;28;20644;-51
2022/01/10 03:34:11;;;;;;;16.90;7.30;;;3.10;99.90;;;;;;5113397;28;20269;-50
2022/01/10 03:36:36;;;;;;;14.85;6.55;;;3.00;99.90;;;;;;5113664;28;20179;-50
2022/01/10 03:39:03;;;;;;;17.05;7.00;;;3.10;99.90;;;;;;5113745;28;20243;-51
2022/01/10 03:41:28;;;;;;;19.58;6.93;;;2.60;99.90;;;;;;5113859;28;20232;-51
2022/01/10 03:43:54;;;;;;;16.98;6.80;;;3.10;99.90;;;;;;5113343;28;20173;-51
2022/01/10 03:46:20;;;;;;;19.55;7.28;;;3.00;99.90;;;;;;5113321;28;20651;-51
2022/01/10 03:48:45;;;;;;;24.02;7.53;;;3.00;99.90;;;;;;5113205;28;20173;-51
2022/01/10 03:51:12;;;;;;;22.00;7.45;;;2.90;99.90;;;;;;5113128;28;20173;-51
2022/01/10 03:53:37;;;;;;;19.67;6.97;;;3.00;99.90;;;;;;5113007;28;20611;-50
2022/01/10 03:56:04;;;;;;;15.82;7.50;;;3.00;99.90;;;;;;5113033;28;20172;-50
2022/01/10 03:58:29;;;;;;;22.48;7.10;;;2.90;99.90;;;;;;5095768;28;20222;-50
2022/01/10 04:00:55;;;;;;;16.42;7.38;;;3.00;99.90;;;;;;5094745;28;20168;-50
2022/01/10 04:03:22;;;;;;;19.33;7.03;;;2.90;99.90;;;;;;5113191;28;20245;-50
2022/01/10 04:05:48;;;;;;;17.95;10.90;;;2.90;99.90;;;;;;5112841;28;20221;-51
2022/01/10 04:08:14;;;;;;;17.73;8.93;;;2.80;99.90;;;;;;5112922;27;20168;-51
2022/01/10 04:10:40;;;;;;;14.95;7.43;;;2.90;99.90;;;;;;5112890;28;20540;-50
2022/01/10 04:13:05;;;;;;;17.10;7.50;;;2.90;99.90;;;;;;5112544;28;20219;-50
2022/01/10 04:15:31;;;;;;;12.88;7.10;;;3.00;99.90;;;;;;5113138;28;20165;-50
2022/01/10 04:17:59;;;;;;;20.10;7.00;;;3.00;99.90;;;;;;5094424;28;20169;-50
2022/01/10 04:20:25;;;;;;;18.73;6.95;;;3.00;99.90;;;;;;5112884;28;20180;-50
2022/01/10 04:22:50;;;;;;;18.67;7.22;;;3.00;99.90;;;;;;5112577;28;20828;-50
2022/01/10 04:25:16;;;;;;;18.13;7.15;;;3.00;99.90;;;;;;5094308;28;20169;-49
2022/01/10 04:27:42;;;;;;;17.55;7.25;;;2.90;99.90;;;;;;5112593;28;20529;-50
2022/01/10 04:30:08;;;;;;;17.92;7.15;;;2.90;99.90;;;;;;5094299;28;20627;-50
2022/01/10 04:32:33;;;;;;;18.02;7.00;;;2.90;99.90;;;;;;5112528;28;20172;-48
2022/01/10 04:34:59;;;;;;;31.02;8.32;;;3.00;99.90;;;;;;5094487;28;20211;-49
2022/01/10 04:37:25;;;;;;;15.38;7.32;;;3.00;99.90;;;;;;5112480;28;20165;-49
2022/01/10 04:39:51;;;;;;;21.10;7.90;;;3.00;99.90;;;;;;5112434;28;20251;-50
2022/01/10 04:42:17;;;;;;;18.15;7.82;;;2.90;99.90;;;;;;5115914;27;20221;-50
2022/01/10 04:44:42;;;;;;;25.05;6.82;;;2.90;99.90;;;;;;5119236;28;20165;-50
2022/01/10 04:47:09;;;;;;;21.63;6.53;;;3.00;99.90;;;;;;5119204;28;20647;-50
2022/01/10 04:52:20;;;;;;;21.42;6.68;;;3.00;99.90;;;;;;5077186;28;20245;-50
2022/01/10 04:54:46;;;;;;;33.88;7.97;;;3.10;99.90;;;;;;5119013;27;20659;-49
2022/01/10 04:57:11;;;;;;;17.30;7.28;;;3.10;99.90;;;;;;5119100;27;20241;-50
2022/01/10 04:59:37;;;;;;;27.17;7.80;;;3.10;99.90;;;;;;5100812;28;20510;-50
2022/01/10 05:02:03;;;;;;;16.35;7.25;;;3.10;99.90;;;;;;5119352;28;20165;-50
2022/01/10 05:04:28;;;;;;;22.75;7.63;;;3.20;99.90;;;;;;5101157;28;20579;-50
2022/01/10 05:06:54;;;;;;;16.02;7.88;;;3.20;99.90;;;;;;5119013;27;20168;-51
2022/01/10 05:09:20;;;;;;;16.70;7.07;;;3.10;99.90;;;;;;5118977;27;20160;-50
2022/01/10 05:11:46;;;;;;;26.92;7.10;;;3.10;99.90;;;;;;5100474;28;20180;-49
2022/01/10 05:14:12;;;;;;;20.58;7.13;;;3.10;99.90;;;;;;5119089;27;20208;-50
2022/01/10 05:16:40;;;;;;;16.95;7.80;;;3.00;99.90;;;;;;5119163;27;20164;-50
2022/01/10 05:19:06;;;;;;;19.38;7.15;;;3.00;99.90;;;;;;5118886;27;20249;-50
2022/01/10 05:21:31;;;;;;;17.67;7.80;;;3.10;99.90;;;;;;5100812;28;20555;-50
2022/01/10 05:23:57;;;;;;;17.17;7.07;;;3.10;99.90;;;;;;5118871;28;20245;-50
2022/01/10 05:26:22;;;;;;;12.85;6.65;;;3.10;99.90;;;;;;5118867;28;20160;-49
2022/01/10 05:28:48;;;;;;;13.20;7.20;;;3.20;99.90;;;;;;5118898;27;20196;-51
2022/01/10 05:31:13;;;;;;;16.63;6.93;;;3.20;99.90;;;;;;5118813;27;20239;-50
2022/01/10 05:33:39;;;;;;;13.27;6.97;;;3.20;99.90;;;;;;5118687;27;20200;-50
2022/01/10 05:36:04;;;;;;;11.88;6.15;;;3.10;99.90;;;;;;5118934;28;20667;-49
2022/01/10 05:38:30;;;;;;;17.05;7.15;;;3.10;99.90;;;;;;5119068;28;20635;-49
2022/01/10 05:40:56;;;;;;;18.77;7.20;;;3.00;99.90;;;;;;5118702;27;20169;-50
2022/01/10 05:43:21;;;;;;;15.68;6.32;;;3.10;99.90;;;;;;5118676;27;20204;-50
2022/01/10 05:45:48;;;;;;;15.20;7.03;;;3.00;99.90;;;;;;5118692;27;20168;-50
2022/01/10 05:48:21;;;;;;;17.30;7.05;;;3.00;99.90;;;;;;5118758;28;20164;-50
2022/01/10 05:50:47;;;;;;;15.95;6.60;;;3.00;99.90;;;;;;5118636;28;20164;-50
2022/01/10 05:53:13;;;;;;;16.45;7.32;;;3.00;99.90;;;;;;5117426;28;20171;-51
2022/01/10 05:55:39;;;;;;;16.77;7.03;;;2.80;99.90;;;;;;5097164;28;20236;-49
2022/01/10 05:58:06;;;;;;;15.63;6.70;;;2.80;99.90;;;;;;5115276;28;20633;-49
2022/01/10 06:00:34;;;;;;;16.67;6.57;;;2.90;99.90;;;;;;5115670;28;20188;-50
2022/01/10 06:02:59;;;;;;;13.02;6.78;;;3.00;99.90;;;;;;5115877;28;20164;-50
2022/01/10 06:05:30;;;;;;;11.38;6.55;;;3.00;99.90;;;;;;5115140;28;20175;-49
2022/01/10 06:07:57;;;;;;;15.90;7.32;;;3.00;99.90;;;;;;5115259;28;20239;-50
2022/01/10 06:10:22;;;;;;;16.00;7.00;;;3.10;99.90;;;;;;5115103;28;20172;-50
2022/01/10 06:12:48;;;;;;;15.55;6.35;;;3.10;99.90;;;;;;5114864;28;20212;-50
2022/01/10 06:15:13;;;;;;;22.00;6.65;;;3.10;99.90;;;;;;5096702;28;20606;-51
2022/01/10 06:17:39;;;;;;;12.07;6.63;;;3.10;99.90;;;;;;5114913;28;20253;-50
2022/01/10 06:20:05;;;;;;;14.52;6.28;;;3.20;99.90;;;;;;5114814;28;20165;-49
2022/01/10 06:22:31;;;;;;;18.45;8.05;;;3.10;99.90;;;;;;5115192;28;20157;-49
2022/01/10 06:24:56;;;;;;;17.83;6.95;;;3.10;99.90;;;;;;5096691;28;20774;-49
2022/01/10 06:27:22;;;;;;;18.25;7.38;;;3.20;99.90;;;;;;5114809;28;20563;-49
2022/01/10 06:29:47;;;;;;;14.73;7.82;;;3.30;99.90;;;;;;5114580;28;20578;-50
2022/01/10 06:32:13;;;;;;;13.52;6.50;;;3.30;99.90;;;;;;5114616;28;20169;-50
2022/01/10 06:34:38;;;;;;;17.08;7.10;;;3.30;99.90;;;;;;5114588;28;20208;-49
2022/01/10 06:37:04;;;;;;;20.45;8.18;;;3.30;99.90;;;;;;5114604;28;20240;-48
2022/01/10 06:39:30;;;;;;;20.05;8.55;;;3.30;99.90;;;;;;5114950;28;20172;-50
2022/01/10 06:41:55;;;;;;;15.35;7.53;;;3.40;99.90;;;;;;5114489;28;20161;-50
2022/01/10 06:44:21;;;;;;;13.63;7.25;;;3.40;99.90;;;;;;5114339;28;20200;-50
2022/01/10 06:46:46;;;;;;;25.38;8.13;;;3.40;99.90;;;;;;5114468;28;20168;-49
2022/01/10 06:49:12;;;;;;;20.10;9.27;;;3.40;99.90;;;;;;5114566;28;20176;-50
2022/01/10 06:51:37;;;;;;;19.85;8.68;;;3.40;99.90;;;;;;5114287;28;20196;-49
2022/01/10 06:54:03;;;;;;;15.82;8.27;;;3.40;99.90;;;;;;5114127;28;20207;-49
2022/01/10 06:56:28;;;;;;;17.80;8.85;;;3.30;99.90;;;;;;5114494;28;20161;-50
2022/01/10 06:58:54;;;;;;;21.85;9.23;;;3.50;99.90;;;;;;5114184;28;20192;-50
2022/01/10 07:01:20;;;;;;;20.38;9.40;;;3.50;99.90;;;;;;5114132;28;20204;-50
2022/01/10 07:03:46;;;;;;;21.00;9.82;;;3.40;99.90;;;;;;5114314;28;20196;-50
2022/01/10 07:06:12;;;;;;;20.73;9.40;;;3.40;99.90;;;;;;5113425;28;20169;-50
2022/01/10 07:08:37;;;;;;;15.73;7.93;;;3.40;99.90;;;;;;5113853;28;20168;-50
2022/01/10 07:11:03;;;;;;;20.35;7.55;;;3.40;99.90;;;;;;5114014;28;20239;-50
2022/01/10 07:13:28;;;;;;;20.85;8.73;;;3.40;99.90;;;;;;5114013;28;20308;-50
2022/01/10 07:15:54;;;;;;;12.13;7.28;;;3.40;99.90;;;;;;5113800;28;20169;-50
2022/01/10 07:18:19;;;;;;;24.48;8.75;;;3.40;99.90;;;;;;5113805;28;20165;-49
2022/01/10 07:20:45;;;;;;;22.17;8.32;;;3.40;99.90;;;;;;5095489;28;20160;-50
2022/01/10 07:23:10;;;;;;;17.10;7.35;;;3.40;99.90;;;;;;5113721;28;20194;-49
2022/01/10 07:25:36;;;;;;;20.58;8.88;;;3.30;99.90;;;;;;5113653;28;20169;-49
2022/01/10 07:28:02;;;;;;;21.15;9.00;;;3.30;99.90;;;;;;5114132;28;20183;-49
2022/01/10 07:30:28;;;;;;;19.42;8.85;;;3.30;99.90;;;;;;5113845;28;20161;-50
2022/01/10 07:32:53;;;;;;;14.27;7.95;;;3.30;99.90;;;;;;5113418;28;20173;-49
2022/01/10 07:35:20;;;;;;;16.60;9.40;;;3.30;99.90;;;;;;5113395;28;20237;-50
2022/01/10 07:37:45;;;;;;;19.02;10.32;;;3.30;99.90;;;;;;5113373;28;20168;-49
2022/01/10 07:40:11;;;;;;;19.98;9.55;;;3.20;99.90;;;;;;5113296;28;20164;-50
2022/01/10 07:42:37;;;;;;;20.40;7.35;;;3.20;99.90;;;;;;5113326;28;20691;-50
2022/01/10 07:45:06;;;;;;;13.20;7.22;;;3.20;99.90;;;;;;5113289;28;20254;-49
2022/01/10 07:47:33;;;;;;;16.42;7.43;;;3.10;99.90;;;;;;5113637;28;20179;-50
2022/01/10 07:49:58;;;;;;;16.38;7.30;;;3.10;99.90;;;;;;5113510;28;20168;-51
2022/01/10 07:52:26;;;;;;;15.65;7.35;;;3.10;99.90;;;;;;5113185;28;20164;-49
2022/01/10 07:54:52;;;;;;;14.93;6.88;;;3.10;99.90;;;;;;5113096;28;20204;-49
2022/01/10 07:57:18;;;;;;;15.40;6.38;;;3.10;99.90;;;;;;5113004;28;20543;-50
2022/01/10 07:59:44;;;;;;;17.15;6.90;;;3.00;99.90;;;;;;5112989;28;20242;-49
2022/01/10 08:02:10;;;;;;;15.52;6.35;;;3.00;99.90;;;;;;5113217;28;20218;-50
2022/01/10 08:04:36;;;;;;;13.27;6.70;;;3.10;99.90;;;;;;5112842;28;20581;-50
2022/01/10 08:07:05;;;;;;;12.90;5.80;;;3.10;99.90;;;;;;5113486;28;20165;-49
2022/01/10 08:09:30;;;;;;;10.90;5.78;;;3.10;99.90;;;;;;5113212;28;20624;-49
2022/01/10 08:11:59;;;;;;;11.30;6.20;;;2.90;99.90;;;;;;5112791;28;20238;-50
2022/01/10 08:14:29;;;;;;;12.65;6.28;;;3.00;99.90;;;;;;5112963;28;20211;-51
2022/01/10 08:16:56;;;;;;;18.10;6.45;;;3.00;99.90;;;;;;5111894;28;20161;-50
2022/01/10 08:19:22;;;;;;;13.20;6.35;;;3.10;99.90;;;;;;5112704;28;20165;-50
2022/01/10 08:21:48;;;;;;;13.80;6.20;;;3.20;99.90;;;;;;5112803;28;20156;-50
2022/01/10 08:24:13;;;;;;;12.95;5.75;;;3.20;99.90;;;;;;5112703;28;20594;-49
2022/01/10 08:26:40;;;;;;;10.02;5.78;;;3.10;99.90;;;;;;5112567;28;20171;-50
2022/01/10 08:29:06;;;;;;;15.45;5.53;;;3.20;99.90;;;;;;5112840;28;20172;-50
2022/01/10 08:31:33;;;;;;;11.50;5.43;;;3.20;99.90;;;;;;5112924;28;20623;-50
2022/01/10 08:34:04;;;;;;;17.27;7.32;;;3.20;99.90;;;;;;5112904;28;20667;-50
2022/01/10 08:36:29;;;;;;;8.10;5.60;;;3.20;99.90;;;;;;5112863;28;20520;-49
2022/01/10 08:38:56;;;;;;;15.13;5.90;;;3.20;99.90;;;;;;5112530;28;20160;-49
2022/01/10 08:41:22;;;;;;;12.50;5.78;;;3.20;99.90;;;;;;5112496;28;20169;-51
2022/01/10 08:43:48;;;;;;;11.38;5.10;;;3.30;99.90;;;;;;5112462;28;20214;-50
2022/01/10 08:46:14;;;;;;;17.38;7.75;;;3.40;99.90;;;;;;5112359;28;20172;-50
2022/01/10 08:48:40;;;;;;;12.00;6.63;;;3.50;99.90;;;;;;5112658;28;20272;-50
2022/01/10 08:51:06;;;;;;;14.60;7.25;;;3.50;99.90;;;;;;5112583;28;20263;-50
2022/01/10 08:53:32;;;;;;;8.60;4.88;;;3.60;99.90;;;;;;5112556;28;20207;-50
2022/01/10 08:55:58;;;;;;;12.32;5.88;;;3.50;99.90;;;;;;5112702;28;20257;-50
2022/01/10 08:58:26;;;;;;;10.35;5.90;;;3.50;99.90;;;;;;5112333;28;20552;-50
2022/01/10 09:00:52;;;;;;;10.95;5.78;;;3.50;99.90;;;;;;5112252;28;20169;-50
2022/01/10 09:03:18;;;;;;;12.70;5.75;;;3.50;99.90;;;;;;5112299;28;20156;-50
2022/01/10 09:05:44;;;;;;;12.02;5.95;;;3.70;99.90;;;;;;5112477;28;20213;-50
2022/01/10 09:08:10;;;;;;;11.75;5.80;;;3.60;99.90;;;;;;5112241;28;20526;-49
2022/01/10 09:10:36;;;;;;;11.60;5.75;;;3.70;99.90;;;;;;5112437;28;20642;-50
2022/01/10 09:13:01;;;;;;;13.88;6.15;;;3.90;99.90;;;;;;5112368;28;20295;-50
2022/01/10 09:15:27;;;;;;;8.30;5.22;;;3.90;99.90;;;;;;5112186;28;20546;-50
2022/01/10 09:17:53;;;;;;;15.10;5.90;;;4.00;99.90;;;;;;5112373;28;20214;-50
2022/01/10 09:20:19;;;;;;;13.93;5.38;;;4.10;99.90;;;;;;5112060;28;20194;-50
2022/01/10 09:22:44;;;;;;;14.38;6.25;;;4.20;99.90;;;;;;5112103;28;20159;-49
2022/01/10 09:25:10;;;;;;;10.65;5.97;;;4.20;99.90;;;;;;5093875;28;20587;-50
2022/01/10 09:27:36;;;;;;;13.75;6.13;;;4.30;99.90;;;;;;5112329;28;20165;-50
2022/01/10 09:30:03;;;;;;;12.30;6.72;;;4.40;99.90;;;;;;5116275;28;20229;-51
2022/01/10 09:32:29;;;;;;;15.98;6.25;;;4.50;99.90;;;;;;5116173;28;20172;-49
2022/01/10 09:34:55;;;;;;;17.77;10.23;;;4.60;99.90;;;;;;5116016;28;20209;-50
2022/01/10 09:37:22;;;;;;;15.68;9.48;;;4.70;99.90;;;;;;5115748;28;20586;-50
2022/01/10 09:39:47;;;;;;;20.23;9.93;;;4.80;99.90;;;;;;5115792;28;20611;-50
2022/01/10 09:42:13;;;;;;;14.45;8.00;;;4.90;99.90;;;;;;5115877;28;20251;-49
2022/01/10 09:44:40;;;;;;;16.42;7.93;;;4.90;99.90;;;;;;5115801;28;20200;-50
2022/01/10 09:47:06;;;;;;;19.48;8.23;;;4.90;99.90;;;;;;5115406;28;20260;-50
2022/01/10 09:49:31;;;;;;;19.65;8.93;;;5.00;99.90;;;;;;5115604;28;20632;-50
2022/01/10 09:51:57;;;;;;;14.63;8.30;;;5.00;99.90;;;;;;5115077;28;20161;-51
2022/01/10 09:54:22;;;;;;;18.20;7.97;;;5.00;99.90;;;;;;5115189;28;20291;-50
2022/01/10 09:56:49;;;;;;;14.13;6.80;;;4.90;99.90;;;;;;5115137;28;20236;-50
2022/01/10 09:59:15;;;;;;;15.48;7.10;;;5.00;99.90;;;;;;5115048;28;20179;-51
2022/01/10 10:01:42;;;;;;;14.13;7.75;;;5.00;99.90;;;;;;5115292;28;20160;-50
2022/01/10 10:04:08;;;;;;;19.10;8.52;;;5.10;99.90;;;;;;5114981;28;20172;-50
2022/01/10 10:06:33;;;;;;;15.75;7.47;;;5.10;99.90;;;;;;5115137;28;20508;-50
2022/01/10 10:09:01;;;;;;;16.52;7.53;;;5.10;99.90;;;;;;5115256;28;20562;-50
2022/01/10 10:11:47;;;;;;;11.75;6.72;;;5.30;99.90;;;;;;5114884;28;20599;-49
2022/01/10 10:14:17;;;;;;;15.45;7.10;;;5.40;99.90;;;;;;5114654;28;20204;-50
2022/01/10 10:16:49;;;;;;;12.73;7.18;;;5.30;99.90;;;;;;5115274;28;20168;-50
2022/01/10 10:19:16;;;;;;;16.88;7.28;;;5.20;99.90;;;;;;5114675;28;20196;-50
2022/01/10 10:21:42;;;;;;;15.48;7.28;;;5.30;99.90;;;;;;5114603;28;20173;-51
2022/01/10 10:24:07;;;;;;;13.35;6.88;;;5.40;99.90;;;;;;5114538;28;20654;-50
2022/01/10 10:26:33;;;;;;;14.90;7.68;;;5.50;99.90;;;;;;5114788;28;20188;-50
2022/01/10 10:28:59;;;;;;;14.38;7.47;;;5.50;99.90;;;;;;5114614;28;20172;-49
2022/01/10 10:31:35;;;;;;;13.55;7.47;;;5.60;99.90;;;;;;5114743;28;20165;-50
2022/01/10 10:34:04;;;;;;;14.55;7.88;;;5.60;99.90;;;;;;5114646;28;20204;-49
2022/01/10 10:36:33;;;;;;;15.15;7.70;;;5.60;99.90;;;;;;5115081;28;20169;-50
2022/01/10 10:39:01;;;;;;;13.85;7.25;;;5.60;99.90;;;;;;5112967;28;20659;-48
2022/01/10 10:41:26;;;;;;;21.65;7.63;;;5.70;99.90;;;;;;5094446;28;20217;-47
2022/01/10 10:43:54;;;;;;;17.98;7.25;;;5.80;99.90;;;;;;5107876;27;20160;-49
2022/01/10 10:46:24;;;;;;;19.63;9.35;;;6.00;99.90;;;;;;5133996;27;20217;-47
2022/01/10 10:48:52;;;;;;;15.93;9.57;;;6.10;99.90;;;;;;5133082;27;20684;-51
2022/01/10 10:51:18;;;;;;;23.60;12.23;;;6.20;99.90;;;;;;5133635;27;20166;-42
2022/01/10 10:53:44;;;;;;;26.38;9.15;;;6.20;99.90;;;;;;5133308;27;20196;-46
2022/01/10 10:56:09;;;;;;;16.90;8.52;;;6.20;99.90;;;;;;5133556;27;20164;-48
2022/01/10 10:58:35;;;;;;;22.05;7.43;;;6.10;99.90;;;;;;5133374;27;20160;-47
2022/01/10 11:01:02;;;;;;;23.45;12.10;;;6.00;99.90;;;;;;5134222;27;20172;-44
2022/01/10 11:03:28;;;;;;;15.18;8.60;;;6.10;99.90;;;;;;5133220;27;20164;-46
2022/01/10 11:05:59;;;;;;;24.80;11.18;;;6.10;99.90;;;;;;5133446;27;20172;-48
2022/01/10 11:08:31;;;;;;;53.90;24.02;;;6.10;99.90;;;;;;5133161;27;20221;-50
2022/01/10 11:11:00;;;;;;;19.20;8.40;;;6.30;99.90;;;;;;5133532;27;20164;-52
2022/01/10 11:13:27;;;;;;;16.33;7.57;;;6.20;99.90;;;;;;5132628;27;20216;-50
2022/01/10 11:15:55;;;;;;;66.38;34.92;;;6.20;99.90;;;;;;5133005;27;20651;-48
2022/01/10 11:18:21;;;;;;;22.05;9.25;;;6.30;99.90;;;;;;5132916;27;20203;-49
2022/01/10 11:20:50;;;;;;;18.75;8.27;;;6.30;99.90;;;;;;5133284;27;20308;-48
2022/01/10 11:23:16;;;;;;;23.73;9.32;;;6.30;99.90;;;;;;5132402;27;20224;-49
2022/01/10 11:25:42;;;;;;;18.17;8.20;;;6.30;99.90;;;;;;5133097;27;20227;-49
2022/01/10 11:28:24;;;;;;;21.98;7.30;;;6.20;99.90;;;;;;5132289;27;20236;-49
2022/01/10 11:30:58;;;;;;;18.30;7.65;;;6.30;99.90;;;;;;5132780;27;20164;-48
2022/01/10 11:33:32;;;;;;;23.05;8.10;;;6.30;99.90;;;;;;5132508;27;20152;-47
2022/01/10 11:36:03;;;;;;;34.47;12.02;;;6.30;99.90;;;;;;5132726;27;20785;-49
2022/01/10 11:38:45;;;;;;;24.55;8.52;;;6.50;99.90;;;;;;5132632;27;20640;-48
2022/01/10 11:41:16;;;;;;;17.80;8.18;;;6.40;99.90;;;;;;5132790;27;20168;-49
2022/01/10 11:43:51;;;;;;;21.25;7.93;;;6.40;99.90;;;;;;5132304;27;20220;-48
2022/01/10 11:46:27;;;;;;;19.60;10.23;;;6.40;99.90;;;;;;5132564;27;20155;-49
2022/01/10 11:49:20;;;;;;;26.20;9.00;;;6.60;99.90;;;;;;5132690;27;20168;-49
2022/01/10 11:51:52;;;;;;;23.38;10.32;;;6.40;99.90;;;;;;5132407;27;20160;-49
2022/01/10 11:54:26;;;;;;;21.52;12.25;;;6.60;99.90;;;;;;5132428;27;20199;-49
2022/01/10 11:56:54;;;;;;;24.65;9.25;;;6.60;99.90;;;;;;5132579;27;20231;-46
2022/01/10 11:59:43;;;;;;;22.40;8.68;;;6.60;99.90;;;;;;5131673;27;20216;-48
2022/01/10 12:02:14;;;;;;;24.75;8.98;;;6.60;99.90;;;;;;5131841;27;20178;-43
2022/01/10 12:04:49;;;;;;;23.52;8.43;;;6.70;99.90;;;;;;5131265;27;20172;-48
2022/01/10 12:07:16;;;;;;;18.27;7.85;;;6.60;99.90;;;;;;5132082;27;20231;-50
2022/01/10 12:09:44;;;;;;;24.83;12.35;;;6.60;99.90;;;;;;5131385;27;20160;-51
2022/01/10 12:12:13;;;;;;;23.27;9.07;;;6.70;99.90;;;;;;5131748;27;20211;-49
2022/01/10 12:14:38;;;;;;;29.08;11.15;;;6.60;99.90;;;;;;5131304;27;20538;-50
2022/01/10 12:17:04;;;;;;;24.05;9.25;;;6.70;99.90;;;;;;5131866;27;20167;-46
2022/01/10 12:19:30;;;;;;;28.20;9.00;;;6.70;99.90;;;;;;5132151;27;20175;-43
2022/01/10 12:21:56;;;;;;;24.15;8.02;;;6.80;99.90;;;;;;5131851;27;20183;-49
2022/01/10 12:24:22;;;;;;;18.02;7.25;;;6.70;99.90;;;;;;5131740;27;20316;-45
2022/01/10 12:26:48;;;;;;;17.30;6.85;;;6.60;99.90;;;;;;5131579;27;20794;-48
2022/01/10 12:29:15;;;;;;;17.88;7.05;;;6.50;99.90;;;;;;5131541;27;20163;-42
2022/01/10 12:31:43;;;;;;;17.38;7.43;;;6.40;99.90;;;;;;5131693;27;20160;-49
2022/01/10 12:34:11;;;;;;;20.75;7.10;;;6.40;99.90;;;;;;5131518;27;20282;-48
2022/01/10 12:36:39;;;;;;;19.38;7.07;;;6.20;99.90;;;;;;5131660;27;20232;-54
2022/01/10 12:39:11;;;;;;;20.80;7.65;;;6.10;99.90;;;;;;5131010;27;20195;-50
2022/01/10 12:41:37;;;;;;;15.75;6.30;;;6.10;99.90;;;;;;5131758;27;20176;-52
2022/01/10 12:44:03;;;;;;;23.67;7.80;;;6.10;99.90;;;;;;5131115;28;20168;-43
2022/01/10 12:46:32;;;;;;;21.42;7.50;;;6.10;99.90;;;;;;5131911;28;20182;-44
2022/01/10 12:49:05;;;;;;;17.02;6.88;;;6.10;99.90;;;;;;5131831;28;20176;-47
2022/01/10 12:51:39;;;;;;;22.88;11.30;;;6.00;99.90;;;;;;5131652;28;20171;-45
2022/01/10 12:54:11;;;;;;;20.85;7.38;;;6.00;99.90;;;;;;5131300;28;20228;-47
2022/01/10 12:56:37;;;;;;;20.85;7.43;;;6.00;99.90;;;;;;5131249;28;20172;-51
2022/01/10 12:59:03;;;;;;;27.20;9.02;;;6.00;99.90;;;;;;5131343;28;20580;-46
2022/01/10 13:01:29;;;;;;;28.50;10.73;;;6.00;99.90;;;;;;5131565;28;20164;-46